Terminal Aerodrome Forecast
Issued by NWS Austin/San Antonio, TX

Home | Current Version | Previous Version | Text Only | Print | Product List | Glossary On
Versions: 1 2 3 4 5 6 7 8 9 10 11 12 13 14 15 16 17 18 19 20 21 22 23 24 25 26 27
248
FTUS44 KEWX 291739
TAFSAT
TAF
KSAT 291739Z 2918/3024 18015KT P6SM VCSH BKN024 BKN060
      TEMPO 2920/2922 17015G30KT 3SM -TSRA BKN025CB
     FM300000 23005KT 6SM BR VCSH SCT030
     FM300600 VRB03KT 5SM BR BKN008
     FM301500 36005KT P6SM SCT020=

USA.gov is the U.S. government's official web portal to all federal, state and local government web resources and services.